Cleveland, Ohio
Traffic Map
Current Weather Conditions
Cleveland, Ohio
Clear
Clear
22°
Feels Like: 22°
Wind Chill: 22° Ceiling: Unl
Heat Index: 22° Visibility: 10mi
Dew Point: 14° Wind: 9mph
Humidity: 61% Direction: 220° (SW)
Pressure: 29.95in Gusts: 0mph
Raw Report DataKBKL 310853Z 22008KT 10SM CLR 22/14 A2995 RMK AO2 SLP136 T02170139 56004
Traffic Incident Summary
Active as of:
Severity:
Category:
InformationThere was an issue retrieving the traffic information for this location. Please try a different location or try again shortly.
Advertisements
Track Severe Weather on mobile